Time,TemperatureF,DewpointF,PressureIn,WindDirection,WindDirectionDegrees,WindSpeedMPH,WindSpeedGustMPH,Humidity,HourlyPrecipIn,Conditions,Clouds,dailyrainin,SoftwareType,DateUTC
2013-01-24 00:00:00,11.8,8.9,30.11,NW,317,0.0,3.0,88,0.00,,,0.00,WeatherCatV1.10B1784,2013-01-24 05:00:00,
2013-01-24 00:05:00,11.6,8.7,30.12,NNW,339,2.0,2.0,88,0.00,,,0.00,WeatherCatV1.10B1784,2013-01-24 05:05:00,
2013-01-24 00:10:00,11.5,8.6,30.12,NNW,339,2.0,3.0,88,0.00,,,0.00,WeatherCatV1.10B1784,2013-01-24 05:10:00,
2013-01-24 00:15:00,11.6,8.7,30.12,North,350,3.0,4.0,88,0.00,,,0.00,WeatherCatV1.10B1784,2013-01-24 05:15:00,
2013-01-24 00:20:00,11.8,8.9,30.12,NNW,336,2.0,2.0,88,0.00,,,0.00,WeatherCatV1.10B1784,2013-01-24 05:20:00,
2013-01-24 00:25:00,12.1,9.2,30.12,NW,313,2.0,3.0,88,0.00,,,0.00,WeatherCatV1.10B1784,2013-01-24 05:25:00,
2013-01-24 00:30:00,12.3,9.4,30.13,NNW,338,2.0,4.0,88,0.00,,,0.00,WeatherCatV1.10B1784,2013-01-24 05:30:00,
2013-01-24 00:35:00,12.4,9.3,30.13,NW,309,3.0,7.0,87,0.00,,,0.00,WeatherCatV1.10B1784,2013-01-24 05:35:00,
2013-01-24 00:40:00,12.4,9.0,30.13,NW,326,1.0,3.0,86,0.00,,,0.00,WeatherCatV1.10B1784,2013-01-24 05:40:00,
2013-01-24 00:45:00,12.3,8.9,30.13,NNW,339,4.0,4.0,86,0.00,,,0.00,WeatherCatV1.10B1784,2013-01-24 05:45:00,
2013-01-24 00:50:00,12.0,8.6,30.14,NNW,333,1.0,7.0,86,0.00,,,0.00,WeatherCatV1.10B1784,2013-01-24 05:50:00,
2013-01-24 00:55:00,11.9,8.5,30.14,NNW,342,4.0,4.0,86,0.00,,,0.00,WeatherCatV1.10B1784,2013-01-24 05:55:00,
2013-01-24 01:00:00,11.7,8.3,30.14,NW,311,2.0,4.0,86,0.00,,,0.00,WeatherCatV1.10B1784,2013-01-24 06:00:00,
2013-01-24 01:05:00,11.6,8.2,30.14,NW,312,2.0,4.0,86,0.00,,,0.00,WeatherCatV1.10B1784,2013-01-24 06:05:00,
2013-01-24 01:10:00,11.3,7.9,30.15,NW,321,2.0,3.0,86,0.00,,,0.00,WeatherCatV1.10B1784,2013-01-24 06:10:00,
2013-01-24 01:15:00,11.2,7.8,30.15,NW,317,2.0,4.0,86,0.00,,,0.00,WeatherCatV1.10B1784,2013-01-24 06:15:00,
2013-01-24 01:20:00,11.1,8.0,30.15,NW,323,2.0,5.0,87,0.00,,,0.00,WeatherCatV1.10B1784,2013-01-24 06:20:00,
2013-01-24 01:25:00,11.0,7.9,30.16,NW,322,2.0,5.0,87,0.00,,,0.00,WeatherCatV1.10B1784,2013-01-24 06:25:00,
2013-01-24 01:30:00,10.9,7.8,30.16,WNW,299,1.0,5.0,87,0.00,,,0.00,WeatherCatV1.10B1784,2013-01-24 06:30:00,
2013-01-24 01:35:00,10.8,7.5,30.17,NW,317,0.0,3.0,86,0.00,,,0.00,WeatherCatV1.10B1784,2013-01-24 06:35:00,
2013-01-24 01:40:00,10.6,7.3,30.17,NW,320,2.0,5.0,86,0.00,,,0.00,WeatherCatV1.10B1784,2013-01-24 06:40:00,
2013-01-24 01:45:00,10.5,7.2,30.17,NNW,340,2.0,5.0,86,0.00,,,0.00,WeatherCatV1.10B1784,2013-01-24 06:45:00,
2013-01-24 01:50:00,10.6,7.5,30.18,NNW,333,4.0,4.0,87,0.00,,,0.00,WeatherCatV1.10B1784,2013-01-24 06:50:00,
2013-01-24 01:55:00,10.7,7.4,30.18,NW,316,2.0,4.0,86,0.00,,,0.00,WeatherCatV1.10B1784,2013-01-24 06:55:00,
2013-01-24 02:00:00,10.5,7.2,30.19,NNW,331,2.0,5.0,86,0.00,,,0.00,WeatherCatV1.10B1784,2013-01-24 07:00:00,
2013-01-24 02:05:00,10.5,7.4,30.19,NNW,342,2.0,4.0,87,0.00,,,0.00,WeatherCatV1.10B1784,2013-01-24 07:05:00,
2013-01-24 02:10:00,10.5,7.2,30.20,NNW,337,4.0,4.0,86,0.00,,,0.00,WeatherCatV1.10B1784,2013-01-24 07:10:00,
2013-01-24 02:15:00,10.5,7.2,30.20,NNW,348,3.0,4.0,86,0.00,,,0.00,WeatherCatV1.10B1784,2013-01-24 07:15:00,
2013-01-24 02:20:00,10.6,7.3,30.20,NNW,334,2.0,4.0,86,0.00,,,0.00,WeatherCatV1.10B1784,2013-01-24 07:20:00,
2013-01-24 02:25:00,10.6,7.5,30.21,NNW,333,2.0,5.0,87,0.00,,,0.00,WeatherCatV1.10B1784,2013-01-24 07:25:00,
2013-01-24 02:30:00,10.6,7.3,30.21,NNW,331,1.0,4.0,86,0.00,,,0.00,WeatherCatV1.10B1784,2013-01-24 07:30:00,
2013-01-24 02:35:00,10.6,7.5,30.21,NNW,332,4.0,6.0,87,0.00,,,0.00,WeatherCatV1.10B1784,2013-01-24 07:35:00,
2013-01-24 02:40:00,10.6,7.3,30.22,NNW,342,4.0,5.0,86,0.00,,,0.00,WeatherCatV1.10B1784,2013-01-24 07:40:00,
2013-01-24 02:45:00,10.7,7.4,30.22,NNW,348,4.0,6.0,86,0.00,,,0.00,WeatherCatV1.10B1784,2013-01-24 07:45:00,
2013-01-24 02:50:00,10.7,7.4,30.23,NNW,342,4.0,4.0,86,0.00,,,0.00,WeatherCatV1.10B1784,2013-01-24 07:50:00,
2013-01-24 02:55:00,10.6,7.3,30.23,NNW,342,3.0,5.0,86,0.00,,,0.00,WeatherCatV1.10B1784,2013-01-24 07:55:00,
2013-01-24 03:00:00,10.5,7.2,30.24,NW,324,2.0,4.0,86,0.00,,,0.00,WeatherCatV1.10B1784,2013-01-24 08:00:00,
2013-01-24 03:05:00,10.3,7.0,30.24,NW,321,2.0,3.0,86,0.00,,,0.00,WeatherCatV1.10B1784,2013-01-24 08:05:00,
2013-01-24 03:10:00,10.0,6.7,30.25,NNW,327,2.0,5.0,86,0.00,,,0.00,WeatherCatV1.10B1784,2013-01-24 08:10:00,
2013-01-24 03:15:00,9.9,6.6,30.25,North,355,6.0,6.0,86,0.00,,,0.00,WeatherCatV1.10B1784,2013-01-24 08:15:00,
2013-01-24 03:20:00,9.7,6.4,30.25,NNW,331,2.0,3.0,86,0.00,,,0.00,WeatherCatV1.10B1784,2013-01-24 08:20:00,
2013-01-24 03:25:00,9.5,6.2,30.26,NW,323,3.0,4.0,86,0.00,,,0.00,WeatherCatV1.10B1784,2013-01-24 08:25:00,
2013-01-24 03:30:00,9.4,6.1,30.26,WNW,302,3.0,5.0,86,0.00,,,0.00,WeatherCatV1.10B1784,2013-01-24 08:30:00,
2013-01-24 03:35:00,9.4,6.1,30.27,NW,309,2.0,4.0,86,0.00,,,0.00,WeatherCatV1.10B1784,2013-01-24 08:35:00,
2013-01-24 03:40:00,9.3,6.0,30.27,NW,306,3.0,4.0,86,0.00,,,0.00,WeatherCatV1.10B1784,2013-01-24 08:40:00,
2013-01-24 03:45:00,9.1,5.8,30.27,NW,319,1.0,4.0,86,0.00,,,0.00,WeatherCatV1.10B1784,2013-01-24 08:45:00,
2013-01-24 03:50:00,9.0,5.7,30.28,WNW,300,1.0,5.0,86,0.00,,,0.00,WeatherCatV1.10B1784,2013-01-24 08:50:00,
2013-01-24 03:55:00,9.0,5.7,30.28,NW,309,3.0,5.0,86,0.00,,,0.00,WeatherCatV1.10B1784,2013-01-24 08:55:00,
2013-01-24 04:00:00,8.8,5.5,30.29,West,275,2.0,4.0,86,0.00,,,0.00,WeatherCatV1.10B1784,2013-01-24 09:00:00,
2013-01-24 04:05:00,8.5,5.2,30.29,NW,316,2.0,5.0,86,0.00,,,0.00,WeatherCatV1.10B1784,2013-01-24 09:05:00,
2013-01-24 04:10:00,8.3,5.0,30.29,WNW,290,3.0,6.0,86,0.00,,,0.00,WeatherCatV1.10B1784,2013-01-24 09:10:00,
2013-01-24 04:15:00,8.2,4.9,30.30,WNW,298,3.0,5.0,86,0.00,,,0.00,WeatherCatV1.10B1784,2013-01-24 09:15:00,
2013-01-24 04:20:00,8.2,4.9,30.30,WNW,287,3.0,5.0,86,0.00,,,0.00,WeatherCatV1.10B1784,2013-01-24 09:20:00,
2013-01-24 04:25:00,8.0,4.7,30.30,WNW,288,4.0,5.0,86,0.00,,,0.00,WeatherCatV1.10B1784,2013-01-24 09:25:00,
2013-01-24 04:30:00,7.9,4.6,30.31,WNW,302,2.0,4.0,86,0.00,,,0.00,WeatherCatV1.10B1784,2013-01-24 09:30:00,
2013-01-24 04:35:00,7.9,4.9,30.32,NW,312,3.0,5.0,87,0.00,,,0.00,WeatherCatV1.10B1784,2013-01-24 09:35:00,
2013-01-24 04:40:00,7.9,4.6,30.32,NW,307,4.0,4.0,86,0.00,,,0.00,WeatherCatV1.10B1784,2013-01-24 09:40:00,
2013-01-24 04:45:00,7.8,4.5,30.33,WNW,285,3.0,4.0,86,0.00,,,0.00,WeatherCatV1.10B1784,2013-01-24 09:45:00,
2013-01-24 04:50:00,7.8,4.8,30.33,WNW,294,6.0,6.0,87,0.00,,,0.00,WeatherCatV1.10B1784,2013-01-24 09:50:00,
2013-01-24 04:55:00,7.8,4.5,30.33,WNW,301,2.0,6.0,86,0.00,,,0.00,WeatherCatV1.10B1784,2013-01-24 09:55:00,
2013-01-24 05:00:00,7.8,4.5,30.34,WNW,303,5.0,5.0,86,0.00,,,0.00,WeatherCatV1.10B1784,2013-01-24 10:00:00,
2013-01-24 05:05:00,7.7,4.4,30.34,WNW,296,3.0,5.0,86,0.00,,,0.00,WeatherCatV1.10B1784,2013-01-24 10:05:00,
2013-01-24 05:10:00,7.6,4.3,30.34,NW,315,3.0,4.0,86,0.00,,,0.00,WeatherCatV1.10B1784,2013-01-24 10:10:00,
2013-01-24 05:15:00,7.4,4.1,30.35,NW,317,2.0,6.0,86,0.00,,,0.00,WeatherCatV1.10B1784,2013-01-24 10:15:00,
2013-01-24 05:20:00,7.3,4.0,30.35,NW,307,1.0,3.0,86,0.00,,,0.00,WeatherCatV1.10B1784,2013-01-24 10:20:00,
2013-01-24 05:25:00,7.1,3.8,30.36,NNW,347,3.0,4.0,86,0.00,,,0.00,WeatherCatV1.10B1784,2013-01-24 10:25:00,
2013-01-24 05:30:00,6.9,3.6,30.36,NNW,329,1.0,3.0,86,0.00,,,0.00,WeatherCatV1.10B1784,2013-01-24 10:30:00,
2013-01-24 05:35:00,6.8,3.5,30.36,NNW,330,2.0,5.0,86,0.00,,,0.00,WeatherCatV1.10B1784,2013-01-24 10:35:00,
2013-01-24 05:40:00,6.8,3.5,30.37,NNW,328,1.0,2.0,86,0.00,,,0.00,WeatherCatV1.10B1784,2013-01-24 10:40:00,
2013-01-24 05:45:00,6.6,3.3,30.37,NW,325,2.0,6.0,86,0.00,,,0.00,WeatherCatV1.10B1784,2013-01-24 10:45:00,
2013-01-24 05:50:00,6.6,3.3,30.38,NNW,335,4.0,4.0,86,0.00,,,0.00,WeatherCatV1.10B1784,2013-01-24 10:50:00,
2013-01-24 05:55:00,6.5,3.0,30.38,NNW,340,4.0,5.0,85,0.00,,,0.00,WeatherCatV1.10B1784,2013-01-24 10:55:00,
2013-01-24 06:00:00,6.5,3.2,30.38,NNW,335,3.0,4.0,86,0.00,,,0.00,WeatherCatV1.10B1784,2013-01-24 11:00:00,
2013-01-24 06:05:00,6.4,3.1,30.39,NW,326,4.0,6.0,86,0.00,,,0.00,WeatherCatV1.10B1784,2013-01-24 11:05:00,
2013-01-24 06:10:00,6.3,3.0,30.39,NNW,344,4.0,5.0,86,0.00,,,0.00,WeatherCatV1.10B1784,2013-01-24 11:10:00,
2013-01-24 06:16:00,6.3,3.0,30.39,North,355,2.0,4.0,86,0.00,,,0.00,WeatherCatV1.10B1784,2013-01-24 11:16:00,
2013-01-24 06:21:00,6.2,2.9,30.39,NNW,330,3.0,4.0,86,0.00,,,0.00,WeatherCatV1.10B1784,2013-01-24 11:21:00,
2013-01-24 06:26:00,6.2,2.9,30.40,NNW,336,3.0,6.0,86,0.00,,,0.00,WeatherCatV1.10B1784,2013-01-24 11:26:00,
2013-01-24 06:31:00,6.2,2.9,30.40,NNW,342,2.0,6.0,86,0.00,,,0.00,WeatherCatV1.10B1784,2013-01-24 11:31:00,
2013-01-24 06:36:00,6.2,2.7,30.40,NNW,344,5.0,6.0,85,0.00,,,0.00,WeatherCatV1.10B1784,2013-01-24 11:36:00,
2013-01-24 06:41:00,6.2,2.7,30.41,NNW,345,3.0,5.0,85,0.00,,,0.00,WeatherCatV1.10B1784,2013-01-24 11:41:00,
2013-01-24 06:46:00,6.2,2.7,30.41,NNW,348,2.0,6.0,85,0.00,,,0.00,WeatherCatV1.10B1784,2013-01-24 11:46:00,
2013-01-24 06:50:00,6.2,2.9,30.42,NNW,345,2.0,5.0,86,0.00,,,0.00,WeatherCatV1.10B1784,2013-01-24 11:50:00,
2013-01-24 06:55:00,6.2,2.9,30.42,NNW,339,2.0,3.0,86,0.00,,,0.00,WeatherCatV1.10B1784,2013-01-24 11:55:00,
2013-01-24 07:00:00,6.2,2.7,30.42,NNW,348,2.0,4.0,85,0.00,,,0.00,WeatherCatV1.10B1784,2013-01-24 12:00:00,
2013-01-24 07:05:00,6.2,2.7,30.43,NNW,346,2.0,4.0,85,0.00,,,0.00,WeatherCatV1.10B1784,2013-01-24 12:05:00,
2013-01-24 07:10:00,6.3,2.8,30.43,NW,319,1.0,5.0,85,0.00,,,0.00,WeatherCatV1.10B1784,2013-01-24 12:10:00,
2013-01-24 07:15:00,6.3,2.8,30.43,NNW,348,0.0,3.0,85,0.00,,,0.00,WeatherCatV1.10B1784,2013-01-24 12:15:00,
2013-01-24 07:20:00,6.1,2.6,30.44,North,355,0.0,3.0,85,0.00,,,0.00,WeatherCatV1.10B1784,2013-01-24 12:20:00,
2013-01-24 07:26:00,6.0,2.5,30.44,NNW,335,2.0,3.0,85,0.00,,,0.00,WeatherCatV1.10B1784,2013-01-24 12:26:00,
2013-01-24 07:31:00,5.8,2.3,30.44,NNW,334,1.0,1.0,85,0.00,,,0.00,WeatherCatV1.10B1784,2013-01-24 12:31:00,
2013-01-24 07:36:00,5.5,2.0,30.45,NW,323,2.0,3.0,85,0.00,,,0.00,WeatherCatV1.10B1784,2013-01-24 12:36:00,
2013-01-24 07:41:00,5.4,1.9,30.45,NNW,336,4.0,4.0,85,0.00,,,0.00,WeatherCatV1.10B1784,2013-01-24 12:41:00,
2013-01-24 07:46:00,5.5,2.0,30.46,NW,320,2.0,3.0,85,0.00,,,0.00,WeatherCatV1.10B1784,2013-01-24 12:46:00,
2013-01-24 07:48:00,5.4,1.9,30.46,NNW,344,1.0,2.0,85,0.00,,,0.00,WeatherCatV1.10B1784,2013-01-24 12:48:00,
2013-01-24 07:53:00,5.3,1.8,30.46,NW,317,1.0,3.0,85,0.00,,,0.00,WeatherCatV1.10B1784,2013-01-24 12:53:00,
2013-01-24 07:58:00,5.3,1.8,30.47,NNW,327,1.0,2.0,85,0.00,,,0.00,WeatherCatV1.10B1784,2013-01-24 12:58:00,
2013-01-24 08:03:00,5.2,1.7,30.47,NNW,327,2.0,3.0,85,0.00,,,0.00,WeatherCatV1.10B1784,2013-01-24 13:03:00,
2013-01-24 08:08:00,5.2,1.7,30.47,NNW,338,1.0,2.0,85,0.00,,,0.00,WeatherCatV1.10B1784,2013-01-24 13:08:00,
2013-01-24 08:13:00,5.3,1.8,30.48,NNW,336,2.0,3.0,85,0.00,,,0.00,WeatherCatV1.10B1784,2013-01-24 13:13:00,
2013-01-24 08:18:00,5.4,1.9,30.48,NNW,332,1.0,3.0,85,0.00,,,0.00,WeatherCatV1.10B1784,2013-01-24 13:18:00,
2013-01-24 08:23:00,5.5,2.0,30.48,NNW,333,2.0,3.0,85,0.00,,,0.00,WeatherCatV1.10B1784,2013-01-24 13:23:00,
2013-01-24 08:28:00,5.7,2.2,30.48,NNW,344,3.0,3.0,85,0.00,,,0.00,WeatherCatV1.10B1784,2013-01-24 13:28:00,
2013-01-24 08:33:00,6.1,2.6,30.49,North,0,3.0,5.0,85,0.00,,,0.00,WeatherCatV1.10B1784,2013-01-24 13:33:00,
2013-01-24 08:38:00,6.5,3.0,30.49,NNW,339,4.0,4.0,85,0.00,,,0.00,WeatherCatV1.10B1784,2013-01-24 13:38:00,
2013-01-24 08:43:00,6.9,3.1,30.49,NNW,344,3.0,4.0,84,0.00,,,0.00,WeatherCatV1.10B1784,2013-01-24 13:43:00,
2013-01-24 08:48:00,7.2,3.1,30.49,NNW,327,2.0,4.0,83,0.00,,,0.00,WeatherCatV1.10B1784,2013-01-24 13:48:00,
2013-01-24 08:53:00,7.5,3.4,30.50,NNW,336,3.0,6.0,83,0.00,,,0.00,WeatherCatV1.10B1784,2013-01-24 13:53:00,
2013-01-24 08:58:00,7.8,3.7,30.50,North,5,6.0,6.0,83,0.00,,,0.00,WeatherCatV1.10B1784,2013-01-24 13:58:00,
2013-01-24 09:03:00,8.1,3.8,30.50,NNW,344,3.0,3.0,82,0.00,,,0.00,WeatherCatV1.10B1784,2013-01-24 14:03:00,
2013-01-24 09:08:00,8.4,4.1,30.50,North,355,3.0,5.0,82,0.00,,,0.00,WeatherCatV1.10B1784,2013-01-24 14:08:00,
2013-01-24 09:13:00,8.7,4.4,30.51,NNE,13,4.0,6.0,82,0.00,,,0.00,WeatherCatV1.10B1784,2013-01-24 14:13:00,
2013-01-24 09:18:00,9.0,4.4,30.51,NNW,346,4.0,7.0,81,0.00,,,0.00,WeatherCatV1.10B1784,2013-01-24 14:18:00,
2013-01-24 09:23:00,9.3,4.7,30.52,North,355,1.0,4.0,81,0.00,,,0.00,WeatherCatV1.10B1784,2013-01-24 14:23:00,
2013-01-24 09:28:00,9.6,4.7,30.52,NNW,344,3.0,8.0,80,0.00,,,0.00,WeatherCatV1.10B1784,2013-01-24 14:28:00,
2013-01-24 09:33:00,9.9,5.0,30.52,North,9,4.0,6.0,80,0.00,,,0.00,WeatherCatV1.10B1784,2013-01-24 14:33:00,
2013-01-24 09:38:00,10.1,5.2,30.53,North,350,5.0,10.0,80,0.00,,,0.00,WeatherCatV1.10B1784,2013-01-24 14:38:00,
2013-01-24 09:43:00,10.3,5.1,30.53,NNW,332,3.0,4.0,79,0.00,,,0.00,WeatherCatV1.10B1784,2013-01-24 14:43:00,
2013-01-24 09:48:00,10.5,5.3,30.54,NNE,22,4.0,6.0,79,0.00,,,0.00,WeatherCatV1.10B1784,2013-01-24 14:48:00,
2013-01-24 09:53:00,10.7,5.5,30.55,North,0,3.0,6.0,79,0.00,,,0.00,WeatherCatV1.10B1784,2013-01-24 14:53:00,
2013-01-24 09:58:00,11.1,5.9,30.55,NNE,24,4.0,7.0,79,0.00,,,0.00,WeatherCatV1.10B1784,2013-01-24 14:58:00,
2013-01-24 10:03:00,11.2,5.7,30.55,NNW,336,4.0,6.0,78,0.00,,,0.00,WeatherCatV1.10B1784,2013-01-24 15:03:00,
2013-01-24 10:08:00,11.3,5.8,30.55,North,0,5.0,8.0,78,0.00,,,0.00,WeatherCatV1.10B1784,2013-01-24 15:08:00,
2013-01-24 10:13:00,11.5,6.0,30.55,NNE,26,5.0,6.0,78,0.00,,,0.00,WeatherCatV1.10B1784,2013-01-24 15:13:00,
2013-01-24 10:18:00,11.7,5.9,30.56,NNE,32,4.0,6.0,77,0.00,,,0.00,WeatherCatV1.10B1784,2013-01-24 15:18:00,
2013-01-24 10:23:00,12.0,6.2,30.57,NE,52,4.0,6.0,77,0.00,,,0.00,WeatherCatV1.10B1784,2013-01-24 15:23:00,
2013-01-24 10:28:00,12.3,6.5,30.57,North,355,3.0,6.0,77,0.00,,,0.00,WeatherCatV1.10B1784,2013-01-24 15:28:00,
2013-01-24 10:33:00,12.5,6.4,30.57,NNE,23,4.0,6.0,76,0.00,,,0.00,WeatherCatV1.10B1784,2013-01-24 15:33:00,
2013-01-24 10:38:00,12.6,6.5,30.57,NNE,15,3.0,5.0,76,0.00,,,0.00,WeatherCatV1.10B1784,2013-01-24 15:38:00,
2013-01-24 10:43:00,12.8,6.7,30.57,NE,56,5.0,8.0,76,0.00,,,0.00,WeatherCatV1.10B1784,2013-01-24 15:43:00,
2013-01-24 10:48:00,12.9,6.8,30.58,NNE,27,6.0,8.0,76,0.00,,,0.00,WeatherCatV1.10B1784,2013-01-24 15:48:00,
2013-01-24 10:53:00,13.1,6.7,30.58,NNE,26,6.0,7.0,75,0.00,,,0.00,WeatherCatV1.10B1784,2013-01-24 15:53:00,
2013-01-24 10:58:00,13.5,7.1,30.58,NNE,32,3.0,5.0,75,0.00,,,0.00,WeatherCatV1.10B1784,2013-01-24 15:58:00,
2013-01-24 11:03:00,13.9,7.5,30.59,North,355,4.0,7.0,75,0.00,,,0.00,WeatherCatV1.10B1784,2013-01-24 16:03:00,
2013-01-24 11:08:00,14.0,7.6,30.59,NE,53,4.0,7.0,75,0.00,,,0.00,WeatherCatV1.10B1784,2013-01-24 16:08:00,
2013-01-24 11:13:00,14.0,7.3,30.59,NE,41,6.0,10.0,74,0.00,,,0.00,WeatherCatV1.10B1784,2013-01-24 16:13:00,
2013-01-24 11:18:00,14.0,7.3,30.59,NNE,31,3.0,5.0,74,0.00,,,0.00,WeatherCatV1.10B1784,2013-01-24 16:18:00,
2013-01-24 11:23:00,14.2,7.2,30.59,North,5,2.0,6.0,73,0.00,,,0.00,WeatherCatV1.10B1784,2013-01-24 16:23:00,
2013-01-24 11:28:00,14.4,7.4,30.59,NNW,347,4.0,9.0,73,0.00,,,0.00,WeatherCatV1.10B1784,2013-01-24 16:28:00,
2013-01-24 11:33:00,14.4,7.1,30.59,North,355,5.0,6.0,72,0.00,,,0.00,WeatherCatV1.10B1784,2013-01-24 16:33:00,
2013-01-24 11:38:00,14.4,7.1,30.59,NE,52,4.0,9.0,72,0.00,,,0.00,WeatherCatV1.10B1784,2013-01-24 16:38:00,
2013-01-24 11:43:00,14.3,7.0,30.59,NNE,25,4.0,8.0,72,0.00,,,0.00,WeatherCatV1.10B1784,2013-01-24 16:43:00,
2013-01-24 11:48:00,14.6,7.2,30.59,NE,34,3.0,5.0,72,0.00,,,0.00,WeatherCatV1.10B1784,2013-01-24 16:48:00,
2013-01-24 11:53:00,15.0,7.3,30.59,NNE,32,5.0,8.0,71,0.00,,,0.00,WeatherCatV1.10B1784,2013-01-24 16:53:00,
2013-01-24 11:58:00,15.2,7.2,30.58,ENE,59,4.0,4.0,70,0.00,,,0.00,WeatherCatV1.10B1784,2013-01-24 16:58:00,
2013-01-24 12:03:00,15.5,7.5,30.58,NE,53,5.0,5.0,70,0.00,,,0.00,WeatherCatV1.10B1784,2013-01-24 17:03:00,
2013-01-24 12:08:00,15.5,6.9,30.58,ENE,62,4.0,5.0,68,0.00,,,0.00,WeatherCatV1.10B1784,2013-01-24 17:08:00,
2013-01-24 12:13:00,15.4,7.1,30.57,NNE,17,5.0,7.0,69,0.00,,,0.00,WeatherCatV1.10B1784,2013-01-24 17:13:00,
2013-01-24 12:18:00,15.6,6.9,30.57,ENE,76,2.0,7.0,68,0.00,,,0.00,WeatherCatV1.10B1784,2013-01-24 17:18:00,
2013-01-24 12:23:00,15.5,6.9,30.57,ENE,74,4.0,7.0,68,0.00,,,0.00,WeatherCatV1.10B1784,2013-01-24 17:23:00,
2013-01-24 12:28:00,15.5,5.9,30.57,NNE,24,3.0,6.0,65,0.00,,,0.00,WeatherCatV1.10B1784,2013-01-24 17:28:00,
2013-01-24 12:33:00,15.7,6.4,30.57,NNE,21,3.0,6.0,66,0.00,,,0.00,WeatherCatV1.10B1784,2013-01-24 17:33:00,
2013-01-24 12:38:00,16.4,6.7,30.57,NNE,22,0.0,1.0,65,0.00,,,0.00,WeatherCatV1.10B1784,2013-01-24 17:38:00,
2013-01-24 12:43:00,17.1,7.7,30.57,WNW,294,2.0,2.0,66,0.00,,,0.00,WeatherCatV1.10B1784,2013-01-24 17:43:00,
2013-01-24 12:48:00,17.6,7.9,30.57,NW,312,3.0,4.0,65,0.00,,,0.00,WeatherCatV1.10B1784,2013-01-24 17:48:00,
2013-01-24 12:53:00,17.4,8.0,30.56,NW,321,4.0,5.0,66,0.00,,,0.00,WeatherCatV1.10B1784,2013-01-24 17:53:00,
2013-01-24 12:58:00,17.4,8.0,30.57,North,11,3.0,4.0,66,0.00,,,0.00,WeatherCatV1.10B1784,2013-01-24 17:58:00,
2013-01-24 13:03:00,17.3,7.6,30.57,NW,304,3.0,5.0,65,0.00,,,0.00,WeatherCatV1.10B1784,2013-01-24 18:03:00,
2013-01-24 13:08:00,17.3,7.9,30.57,NW,315,0.0,2.0,66,0.00,,,0.00,WeatherCatV1.10B1784,2013-01-24 18:08:00,
2013-01-24 13:13:00,17.3,7.2,30.57,NW,304,3.0,5.0,64,0.00,,,0.00,WeatherCatV1.10B1784,2013-01-24 18:13:00,
2013-01-24 13:18:00,17.3,6.9,30.57,West,259,4.0,7.0,63,0.00,,,0.00,WeatherCatV1.10B1784,2013-01-24 18:18:00,
2013-01-24 13:23:00,17.3,7.2,30.57,SSW,200,4.0,6.0,64,0.00,,,0.00,WeatherCatV1.10B1784,2013-01-24 18:23:00,
2013-01-24 13:28:00,17.6,7.2,30.56,West,275,2.0,3.0,63,0.00,,,0.00,WeatherCatV1.10B1784,2013-01-24 18:28:00,
2013-01-24 13:33:00,17.8,6.3,30.56,WNW,303,5.0,5.0,60,0.00,,,0.00,WeatherCatV1.10B1784,2013-01-24 18:33:00,
2013-01-24 13:38:00,17.7,5.8,30.56,WNW,283,6.0,7.0,59,0.00,,,0.00,WeatherCatV1.10B1784,2013-01-24 18:38:00,
2013-01-24 13:43:00,17.2,4.2,30.56,NNW,342,6.0,6.0,56,0.00,,,0.00,WeatherCatV1.10B1784,2013-01-24 18:43:00,
2013-01-24 13:48:00,17.2,4.2,30.56,West,281,7.0,7.0,56,0.00,,,0.00,WeatherCatV1.10B1784,2013-01-24 18:48:00,
2013-01-24 13:53:00,17.4,4.0,30.56,WNW,302,3.0,7.0,55,0.00,,,0.00,WeatherCatV1.10B1784,2013-01-24 18:53:00,
2013-01-24 13:58:00,17.4,4.0,30.56,NW,321,3.0,3.0,55,0.00,,,0.00,WeatherCatV1.10B1784,2013-01-24 18:58:00,
2013-01-24 14:03:00,17.4,3.6,30.56,NNW,336,2.0,5.0,54,0.00,,,0.00,WeatherCatV1.10B1784,2013-01-24 19:03:00,
2013-01-24 14:08:00,17.6,3.4,30.56,North,0,4.0,5.0,53,0.00,,,0.00,WeatherCatV1.10B1784,2013-01-24 19:08:00,
2013-01-24 14:13:00,17.8,4.0,30.56,NW,312,1.0,3.0,54,0.00,,,0.00,WeatherCatV1.10B1784,2013-01-24 19:13:00,
2013-01-24 14:18:00,18.1,3.9,30.56,NW,317,1.0,5.0,53,0.00,,,0.00,WeatherCatV1.10B1784,2013-01-24 19:18:00,
2013-01-24 14:23:00,18.3,4.5,30.56,NNW,331,1.0,3.0,54,0.00,,,0.00,WeatherCatV1.10B1784,2013-01-24 19:23:00,
2013-01-24 14:28:00,18.3,4.5,30.56,North,351,5.0,6.0,54,0.00,,,0.00,WeatherCatV1.10B1784,2013-01-24 19:28:00,
2013-01-24 14:33:00,18.1,4.3,30.56,West,280,2.0,5.0,54,0.00,,,0.00,WeatherCatV1.10B1784,2013-01-24 19:33:00,
2013-01-24 14:38:00,18.2,4.4,30.56,West,269,2.0,3.0,54,0.00,,,0.00,WeatherCatV1.10B1784,2013-01-24 19:38:00,
2013-01-24 14:43:00,18.4,4.6,30.56,NW,311,1.0,4.0,54,0.00,,,0.00,WeatherCatV1.10B1784,2013-01-24 19:43:00,
2013-01-24 14:48:00,18.5,3.8,30.56,WNW,292,1.0,3.0,52,0.00,,,0.00,WeatherCatV1.10B1784,2013-01-24 19:48:00,
2013-01-24 14:53:00,18.8,4.5,30.55,North,351,4.0,5.0,53,0.00,,,0.00,WeatherCatV1.10B1784,2013-01-24 19:53:00,
2013-01-24 14:58:00,18.9,4.2,30.56,North,355,1.0,3.0,52,0.00,,,0.00,WeatherCatV1.10B1784,2013-01-24 19:58:00,
2013-01-24 15:03:00,19.1,4.4,30.56,WNW,290,2.0,3.0,52,0.00,,,0.00,WeatherCatV1.10B1784,2013-01-24 20:03:00,
2013-01-24 15:08:00,18.9,2.5,30.56,WNW,290,1.0,5.0,48,0.00,,,0.00,WeatherCatV1.10B1784,2013-01-24 20:08:00,
2013-01-24 15:13:00,19.0,2.6,30.56,WSW,248,5.0,5.0,48,0.00,,,0.00,WeatherCatV1.10B1784,2013-01-24 20:13:00,
2013-01-24 15:18:00,19.0,2.6,30.56,WNW,297,2.0,6.0,48,0.00,,,0.00,WeatherCatV1.10B1784,2013-01-24 20:18:00,
2013-01-24 15:23:00,19.0,2.1,30.55,NNW,344,5.0,5.0,47,0.00,,,0.00,WeatherCatV1.10B1784,2013-01-24 20:23:00,
2013-01-24 15:28:00,18.6,1.8,30.55,WNW,290,4.0,6.0,47,0.00,,,0.00,WeatherCatV1.10B1784,2013-01-24 20:28:00,
2013-01-24 15:33:00,18.2,1.4,30.56,WNW,302,1.0,3.0,47,0.00,,,0.00,WeatherCatV1.10B1784,2013-01-24 20:33:00,
2013-01-24 15:38:00,18.3,1.5,30.55,NW,304,3.0,6.0,47,0.00,,,0.00,WeatherCatV1.10B1784,2013-01-24 20:38:00,
2013-01-24 15:43:00,18.2,1.4,30.56,NW,304,2.0,3.0,47,0.00,,,0.00,WeatherCatV1.10B1784,2013-01-24 20:43:00,
2013-01-24 15:48:00,18.4,1.6,30.56,NW,311,1.0,3.0,47,0.00,,,0.00,WeatherCatV1.10B1784,2013-01-24 20:48:00,
2013-01-24 15:53:00,18.4,1.6,30.56,NNW,327,2.0,3.0,47,0.00,,,0.00,WeatherCatV1.10B1784,2013-01-24 20:53:00,
2013-01-24 15:58:00,18.1,0.8,30.56,NW,315,1.0,3.0,46,0.00,,,0.00,WeatherCatV1.10B1784,2013-01-24 20:58:00,
2013-01-24 16:03:00,18.0,0.8,30.56,NW,313,2.0,3.0,46,0.00,,,0.00,WeatherCatV1.10B1784,2013-01-24 21:03:00,
2013-01-24 16:08:00,17.8,1.5,30.56,NW,324,3.0,4.0,48,0.00,,,0.00,WeatherCatV1.10B1784,2013-01-24 21:08:00,
2013-01-24 16:13:00,17.6,1.3,30.56,NW,324,1.0,4.0,48,0.00,,,0.00,WeatherCatV1.10B1784,2013-01-24 21:13:00,
2013-01-24 16:18:00,17.4,1.5,30.56,NW,311,2.0,6.0,49,0.00,,,0.00,WeatherCatV1.10B1784,2013-01-24 21:18:00,
2013-01-24 16:23:00,17.2,1.4,30.56,NW,311,2.0,3.0,49,0.00,,,0.00,WeatherCatV1.10B1784,2013-01-24 21:23:00,
2013-01-24 16:28:00,17.0,0.7,30.56,NW,312,1.0,3.0,48,0.00,,,0.00,WeatherCatV1.10B1784,2013-01-24 21:28:00,
2013-01-24 16:33:00,16.8,0.6,30.56,NW,312,1.0,2.0,48,0.00,,,0.00,WeatherCatV1.10B1784,2013-01-24 21:33:00,
2013-01-24 16:38:00,16.8,1.4,30.56,NW,312,0.0,0.0,50,0.00,,,0.00,WeatherCatV1.10B1784,2013-01-24 21:38:00,
2013-01-24 16:43:00,16.7,1.8,30.56,NW,312,0.0,1.0,51,0.00,,,0.00,WeatherCatV1.10B1784,2013-01-24 21:43:00,
2013-01-24 16:48:00,16.6,1.7,30.56,NW,312,0.0,1.0,51,0.00,,,0.00,WeatherCatV1.10B1784,2013-01-24 21:48:00,
2013-01-24 16:53:00,16.4,2.3,30.56,NW,312,0.0,0.0,53,0.00,,,0.00,WeatherCatV1.10B1784,2013-01-24 21:53:00,
2013-01-24 16:58:00,16.3,2.2,30.56,NW,312,0.0,1.0,53,0.00,,,0.00,WeatherCatV1.10B1784,2013-01-24 21:58:00,
2013-01-24 17:03:00,16.1,1.6,30.56,NW,312,0.0,0.0,52,0.00,,,0.00,WeatherCatV1.10B1784,2013-01-24 22:03:00,
2013-01-24 17:08:00,16.0,1.1,30.56,NW,312,0.0,0.0,51,0.00,,,0.00,WeatherCatV1.10B1784,2013-01-24 22:08:00,
2013-01-24 17:13:00,15.8,1.3,30.56,NW,312,0.0,0.0,52,0.00,,,0.00,WeatherCatV1.10B1784,2013-01-24 22:13:00,
2013-01-24 17:18:00,15.7,1.2,30.56,NW,312,0.0,0.0,52,0.00,,,0.00,WeatherCatV1.10B1784,2013-01-24 22:18:00,
2013-01-24 17:23:00,15.4,1.0,30.56,NW,312,1.0,2.0,52,0.00,,,0.00,WeatherCatV1.10B1784,2013-01-24 22:23:00,
2013-01-24 17:28:00,15.4,1.0,30.56,NW,312,0.0,1.0,52,0.00,,,0.00,WeatherCatV1.10B1784,2013-01-24 22:28:00,
2013-01-24 17:33:00,15.2,0.8,30.56,NW,312,0.0,0.0,52,0.00,,,0.00,WeatherCatV1.10B1784,2013-01-24 22:33:00,
2013-01-24 17:38:00,14.9,1.3,30.56,NW,312,0.0,0.0,54,0.00,,,0.00,WeatherCatV1.10B1784,2013-01-24 22:38:00,
2013-01-24 17:43:00,14.6,1.4,30.56,NW,312,0.0,0.0,55,0.00,,,0.00,WeatherCatV1.10B1784,2013-01-24 22:43:00,
2013-01-24 17:49:00,14.1,1.7,30.56,NW,312,0.0,0.0,57,0.00,,,0.00,WeatherCatV1.10B1784,2013-01-24 22:49:00,
2013-01-24 17:54:00,13.6,1.6,30.56,NW,312,0.0,0.0,58,0.00,,,0.00,WeatherCatV1.10B1784,2013-01-24 22:54:00,
2013-01-24 17:59:00,13.2,1.2,30.56,NW,312,0.0,0.0,58,0.00,,,0.00,WeatherCatV1.10B1784,2013-01-24 22:59:00,
2013-01-24 18:04:00,12.8,0.5,30.56,NW,312,0.0,0.0,57,0.00,,,0.00,WeatherCatV1.10B1784,2013-01-24 23:04:00,
2013-01-24 18:09:00,12.5,0.6,30.56,NW,312,0.0,0.0,58,0.00,,,0.00,WeatherCatV1.10B1784,2013-01-24 23:09:00,
2013-01-24 18:14:00,12.2,0.6,30.56,NW,312,0.0,0.0,59,0.00,,,0.00,WeatherCatV1.10B1784,2013-01-24 23:14:00,
2013-01-24 18:19:00,11.7,0.9,30.56,NW,312,0.0,0.0,61,0.00,,,0.00,WeatherCatV1.10B1784,2013-01-24 23:19:00,
2013-01-24 18:24:00,11.3,0.5,30.56,NW,312,0.0,0.0,61,0.00,,,0.00,WeatherCatV1.10B1784,2013-01-24 23:24:00,
2013-01-24 18:29:00,11.1,0.7,30.56,NW,312,0.0,0.0,62,0.00,,,0.00,WeatherCatV1.10B1784,2013-01-24 23:29:00,
2013-01-24 18:34:00,10.8,0.4,30.56,NW,312,0.0,0.0,62,0.00,,,0.00,WeatherCatV1.10B1784,2013-01-24 23:34:00,
2013-01-24 18:39:00,10.4,0.0,30.57,NW,312,0.0,0.0,62,0.00,,,0.00,WeatherCatV1.10B1784,2013-01-24 23:39:00,
2013-01-24 18:44:00,10.1,-0.3,30.56,NW,312,0.0,0.0,62,0.00,,,0.00,WeatherCatV1.10B1784,2013-01-24 23:44:00,
2013-01-24 18:49:00,9.7,0.0,30.56,NW,312,0.0,0.0,64,0.00,,,0.00,WeatherCatV1.10B1784,2013-01-24 23:49:00,
2013-01-24 18:54:00,9.4,0.0,30.56,NW,312,0.0,0.0,65,0.00,,,0.00,WeatherCatV1.10B1784,2013-01-24 23:54:00,
2013-01-24 18:59:00,9.2,-0.1,30.56,NW,312,0.0,0.0,65,0.00,,,0.00,WeatherCatV1.10B1784,2013-01-24 23:59:00,
2013-01-24 19:04:00,9.0,-0.3,30.56,NW,312,0.0,0.0,65,0.00,,,0.00,WeatherCatV1.10B1784,2013-01-25 00:04:00,
2013-01-24 19:09:00,8.7,-0.3,30.56,NW,312,0.0,0.0,66,0.00,,,0.00,WeatherCatV1.10B1784,2013-01-25 00:09:00,
2013-01-24 19:14:00,8.3,-0.7,30.56,NW,312,0.0,0.0,66,0.00,,,0.00,WeatherCatV1.10B1784,2013-01-25 00:14:00,
2013-01-24 19:19:00,8.0,-0.6,30.56,NW,312,0.0,0.0,67,0.00,,,0.00,WeatherCatV1.10B1784,2013-01-25 00:19:00,
2013-01-24 19:24:00,7.7,-0.3,30.55,NW,312,0.0,0.0,69,0.00,,,0.00,WeatherCatV1.10B1784,2013-01-25 00:24:00,
2013-01-24 19:29:00,7.6,-0.4,30.55,NW,312,0.0,0.0,69,0.00,,,0.00,WeatherCatV1.10B1784,2013-01-25 00:29:00,
2013-01-24 19:34:00,7.7,-0.3,30.55,NW,312,0.0,0.0,69,0.00,,,0.00,WeatherCatV1.10B1784,2013-01-25 00:34:00,
2013-01-24 19:39:00,8.0,-0.3,30.55,NW,312,0.0,0.0,68,0.00,,,0.00,WeatherCatV1.10B1784,2013-01-25 00:39:00,
2013-01-24 19:44:00,8.0,-0.3,30.55,NW,312,0.0,0.0,68,0.00,,,0.00,WeatherCatV1.10B1784,2013-01-25 00:44:00,
2013-01-24 19:49:00,7.8,-0.5,30.55,NW,312,0.0,0.0,68,0.00,,,0.00,WeatherCatV1.10B1784,2013-01-25 00:49:00,
2013-01-24 19:54:00,7.7,-0.3,30.54,NW,312,0.0,0.0,69,0.00,,,0.00,WeatherCatV1.10B1784,2013-01-25 00:54:00,
2013-01-24 19:59:00,7.8,-0.2,30.54,NW,312,0.0,1.0,69,0.00,,,0.00,WeatherCatV1.10B1784,2013-01-25 00:59:00,
2013-01-24 20:04:00,7.7,-0.3,30.53,NW,312,0.0,0.0,69,0.00,,,0.00,WeatherCatV1.10B1784,2013-01-25 01:04:00,
2013-01-24 20:09:00,7.4,-0.3,30.53,NW,312,0.0,0.0,70,0.00,,,0.00,WeatherCatV1.10B1784,2013-01-25 01:09:00,
2013-01-24 20:14:00,7.2,0.1,30.53,NW,312,0.0,0.0,72,0.00,,,0.00,WeatherCatV1.10B1784,2013-01-25 01:14:00,
2013-01-24 20:19:00,7.1,0.3,30.52,NW,312,0.0,0.0,73,0.00,,,0.00,WeatherCatV1.10B1784,2013-01-25 01:19:00,
2013-01-24 20:24:00,7.1,0.6,30.52,NW,312,0.0,0.0,74,0.00,,,0.00,WeatherCatV1.10B1784,2013-01-25 01:24:00,
2013-01-24 20:29:00,7.0,0.8,30.53,NW,312,0.0,0.0,75,0.00,,,0.00,WeatherCatV1.10B1784,2013-01-25 01:29:00,
2013-01-24 20:34:00,6.9,0.7,30.53,NW,312,0.0,0.0,75,0.00,,,0.00,WeatherCatV1.10B1784,2013-01-25 01:34:00,
2013-01-24 20:39:00,6.9,0.4,30.53,NW,312,0.0,0.0,74,0.00,,,0.00,WeatherCatV1.10B1784,2013-01-25 01:39:00,
2013-01-24 20:44:00,6.9,0.4,30.52,NW,312,0.0,0.0,74,0.00,,,0.00,WeatherCatV1.10B1784,2013-01-25 01:44:00,
2013-01-24 20:49:00,7.0,1.3,30.52,NW,312,0.0,0.0,77,0.00,,,0.00,WeatherCatV1.10B1784,2013-01-25 01:49:00,
2013-01-24 20:54:00,6.9,1.0,30.52,NW,312,0.0,0.0,76,0.00,,,0.00,WeatherCatV1.10B1784,2013-01-25 01:54:00,
2013-01-24 20:59:00,6.9,1.2,30.52,NW,312,0.0,0.0,77,0.00,,,0.00,WeatherCatV1.10B1784,2013-01-25 01:59:00,
2013-01-24 21:04:00,6.9,1.5,30.52,NW,312,0.0,0.0,78,0.00,,,0.00,WeatherCatV1.10B1784,2013-01-25 02:04:00,
2013-01-24 21:09:00,7.0,1.3,30.53,NW,312,0.0,0.0,77,0.00,,,0.00,WeatherCatV1.10B1784,2013-01-25 02:09:00,
2013-01-24 21:14:00,7.1,1.4,30.52,NW,312,0.0,0.0,77,0.00,,,0.00,WeatherCatV1.10B1784,2013-01-25 02:14:00,
2013-01-24 21:19:00,7.2,2.1,30.52,NW,312,0.0,0.0,79,0.00,,,0.00,WeatherCatV1.10B1784,2013-01-25 02:19:00,
2013-01-24 21:24:00,7.2,2.4,30.52,NW,312,0.0,0.0,80,0.00,,,0.00,WeatherCatV1.10B1784,2013-01-25 02:24:00,
2013-01-24 21:29:00,7.3,3.0,30.52,NW,312,0.0,0.0,82,0.00,,,0.00,WeatherCatV1.10B1784,2013-01-25 02:29:00,
2013-01-24 21:34:00,7.4,2.8,30.52,NW,312,0.0,0.0,81,0.00,,,0.00,WeatherCatV1.10B1784,2013-01-25 02:34:00,
2013-01-24 21:39:00,7.7,3.1,30.52,NW,312,0.0,0.0,81,0.00,,,0.00,WeatherCatV1.10B1784,2013-01-25 02:39:00,
2013-01-24 21:44:00,7.8,3.2,30.52,NW,312,0.0,0.0,81,0.00,,,0.00,WeatherCatV1.10B1784,2013-01-25 02:44:00,
2013-01-24 21:49:00,8.0,3.1,30.51,NW,312,0.0,0.0,80,0.00,,,0.00,WeatherCatV1.10B1784,2013-01-25 02:49:00,
2013-01-24 21:54:00,8.1,3.5,30.51,NW,312,0.0,0.0,81,0.00,,,0.00,WeatherCatV1.10B1784,2013-01-25 02:54:00,
2013-01-24 21:59:00,8.2,3.6,30.51,NW,312,0.0,0.0,81,0.00,,,0.00,WeatherCatV1.10B1784,2013-01-25 02:59:00,
2013-01-24 22:04:00,8.3,4.0,30.52,NW,312,0.0,0.0,82,0.00,,,0.00,WeatherCatV1.10B1784,2013-01-25 03:04:00,
2013-01-24 22:09:00,8.5,4.2,30.52,NW,312,0.0,0.0,82,0.00,,,0.00,WeatherCatV1.10B1784,2013-01-25 03:09:00,
2013-01-24 22:14:00,8.5,4.2,30.52,NW,312,0.0,0.0,82,0.00,,,0.00,WeatherCatV1.10B1784,2013-01-25 03:14:00,
2013-01-24 22:19:00,8.6,4.3,30.52,NW,312,0.0,0.0,82,0.00,,,0.00,WeatherCatV1.10B1784,2013-01-25 03:19:00,
2013-01-24 22:24:00,8.7,4.1,30.51,NW,312,0.0,0.0,81,0.00,,,0.00,WeatherCatV1.10B1784,2013-01-25 03:24:00,
2013-01-24 22:29:00,8.9,4.5,30.51,NW,312,0.0,0.0,82,0.00,,,0.00,WeatherCatV1.10B1784,2013-01-25 03:29:00,
2013-01-24 22:34:00,9.1,5.0,30.51,NW,312,0.0,0.0,83,0.00,,,0.00,WeatherCatV1.10B1784,2013-01-25 03:34:00,
2013-01-24 22:39:00,9.3,5.2,30.51,NW,312,0.0,0.0,83,0.00,,,0.00,WeatherCatV1.10B1784,2013-01-25 03:39:00,
2013-01-24 22:44:00,9.4,5.0,30.51,NW,312,0.0,0.0,82,0.00,,,0.00,WeatherCatV1.10B1784,2013-01-25 03:44:00,
2013-01-24 22:49:00,9.6,5.2,30.50,NW,312,0.0,0.0,82,0.00,,,0.00,WeatherCatV1.10B1784,2013-01-25 03:49:00,
2013-01-24 22:54:00,9.7,5.3,30.50,NW,312,0.0,0.0,82,0.00,,,0.00,WeatherCatV1.10B1784,2013-01-25 03:54:00,
2013-01-24 22:59:00,9.9,5.5,30.50,NW,312,0.0,0.0,82,0.00,,,0.00,WeatherCatV1.10B1784,2013-01-25 03:59:00,
2013-01-24 23:04:00,10.0,5.1,30.50,NW,312,0.0,0.0,80,0.00,,,0.00,WeatherCatV1.10B1784,2013-01-25 04:04:00,
2013-01-24 23:09:00,10.1,4.6,30.50,NW,312,0.0,0.0,78,0.00,,,0.00,WeatherCatV1.10B1784,2013-01-25 04:09:00,
2013-01-24 23:14:00,10.6,3.7,30.50,NW,312,0.0,0.0,73,0.00,,,0.00,WeatherCatV1.10B1784,2013-01-25 04:14:00,
2013-01-24 23:19:00,11.1,3.6,30.50,NW,312,0.0,0.0,71,0.00,,,0.00,WeatherCatV1.10B1784,2013-01-25 04:19:00,
2013-01-24 23:24:00,11.4,3.9,30.50,NW,312,0.0,0.0,71,0.00,,,0.00,WeatherCatV1.10B1784,2013-01-25 04:24:00,
2013-01-24 23:29:00,11.7,3.8,30.50,NW,312,0.0,0.0,70,0.00,,,0.00,WeatherCatV1.10B1784,2013-01-25 04:29:00,
2013-01-24 23:34:00,11.9,4.3,30.50,NW,312,0.0,0.0,71,0.00,,,0.00,WeatherCatV1.10B1784,2013-01-25 04:34:00,
2013-01-24 23:39:00,11.9,5.2,30.50,NW,312,0.0,0.0,74,0.00,,,0.00,WeatherCatV1.10B1784,2013-01-25 04:39:00,
2013-01-24 23:44:00,11.9,5.2,30.50,NW,312,0.0,0.0,74,0.00,,,0.00,WeatherCatV1.10B1784,2013-01-25 04:44:00,
2013-01-24 23:49:00,11.9,4.6,30.50,NW,312,0.0,0.0,72,0.00,,,0.00,WeatherCatV1.10B1784,2013-01-25 04:49:00,
2013-01-24 23:54:00,12.0,5.3,30.49,NW,312,0.0,0.0,74,0.00,,,0.00,WeatherCatV1.10B1784,2013-01-25 04:54:00,
2013-01-24 23:59:00,12.1,5.7,30.49,NW,312,0.0,0.0,75,0.00,,,0.00,WeatherCatV1.10B1784,2013-01-25 04:59:00,